CheckWX is a tool to help pilots better visualize weather data.  It is not intended as a substitute for an official pre-flight weather briefing.

17:16:18 UTC

KMVY METAR
Martha's Vineyard Airport
Vineyard Haven, Massachusetts, USA
Current

23 mins ago

KMVY 181653Z 19006KT 10SM CLR 25/22 A3002 RMK AO2 SLP164 T02500217
Observed
Aug-18 @ 16:53 UTC
Wind
  • 190° at 6 KTS
Visibility
10 SM
Flight Rules
VFR
Cloud Levels
  • Clear skies
Temperature
25°C / 77°F
Dewpoint
22°C / 72°F
Humidity
83%
Altimeter
30.02" Hg
Pressure
1016.62 hPa
Previous

1 hour ago

KMVY 181553Z 19010KT 10SM CLR 26/22 A3002 RMK AO2 SLP164 T02560217
Observed
Aug-18 @ 15:53 UTC
Wind
  • 190° at 10 KTS
Visibility
10 SM
Flight Rules
VFR
Cloud Levels
  • Clear skies
Temperature
26°C / 79°F
Dewpoint
22°C / 72°F
Humidity
79%
Altimeter
30.02" Hg
Pressure
1016.62 hPa
Previous

2 hours ago

KMVY 181453Z VRB04KT 10SM CLR 27/22 A3002 RMK AO2 SLP164 T02720217 58001
Observed
Aug-18 @ 14:53 UTC
Wind
  • Variable at 4 KTS
Visibility
10 SM
Flight Rules
VFR
Cloud Levels
  • Clear skies
Temperature
27°C / 81°F
Dewpoint
22°C / 72°F
Heat Index
29°C / 85°F
Humidity
74%
Altimeter
30.02" Hg
Pressure
1016.62 hPa